createdAt,value
2018-04-18T00:00:31.173Z,0.00
2018-04-18T00:01:31.174Z,0.00
2018-04-18T00:02:31.167Z,0.00
2018-04-18T00:03:31.165Z,0.00
2018-04-18T00:04:31.161Z,0.00
2018-04-18T00:05:31.162Z,0.00
2018-04-18T00:06:31.159Z,0.00
2018-04-18T00:07:31.151Z,0.00
2018-04-18T00:08:31.150Z,0.00
2018-04-18T00:09:31.146Z,0.00
2018-04-18T00:10:31.142Z,0.00
2018-04-18T00:11:31.139Z,0.00
2018-04-18T00:12:31.136Z,0.00
2018-04-18T00:13:31.133Z,0.00
2018-04-18T00:14:31.130Z,0.00
2018-04-18T00:15:31.128Z,0.00
2018-04-18T00:16:31.125Z,0.00
2018-04-18T00:17:31.124Z,0.00
2018-04-18T00:18:31.121Z,0.00
2018-04-18T00:19:31.114Z,0.00
2018-04-18T00:20:31.112Z,0.00
2018-04-18T00:21:31.106Z,0.00
2018-04-18T00:22:31.104Z,0.00
2018-04-18T00:23:31.104Z,0.00
2018-04-18T00:24:31.102Z,0.00
2018-04-18T00:25:31.095Z,0.00
2018-04-18T00:26:31.091Z,0.00
2018-04-18T00:27:31.089Z,0.00
2018-04-18T00:28:31.086Z,0.00
2018-04-18T00:29:31.081Z,0.00
2018-04-18T00:30:31.077Z,0.00
2018-04-18T00:31:31.076Z,0.00
2018-04-18T00:32:31.071Z,0.00
2018-04-18T00:33:31.068Z,0.00
2018-04-18T00:34:31.063Z,0.00
2018-04-18T00:35:31.064Z,0.00
2018-04-18T00:36:31.061Z,0.00
2018-04-18T00:37:31.057Z,0.00
2018-04-18T00:38:31.054Z,0.00
2018-04-18T00:39:31.047Z,0.00
2018-04-18T00:40:31.044Z,0.00
2018-04-18T00:41:31.041Z,0.00
2018-04-18T00:42:31.037Z,0.00
2018-04-18T00:43:31.037Z,0.00
2018-04-18T00:44:31.031Z,0.00
2018-04-18T00:45:31.033Z,0.00
2018-04-18T00:46:31.029Z,0.00
2018-04-18T00:47:31.019Z,0.00
2018-04-18T00:48:31.017Z,0.00
2018-04-18T00:49:31.020Z,0.00
2018-04-18T00:50:31.014Z,0.00
2018-04-18T00:51:31.004Z,0.00
2018-04-18T00:52:31.004Z,0.00
2018-04-18T00:53:30.998Z,0.00
2018-04-18T00:54:30.995Z,0.00
2018-04-18T00:55:30.994Z,0.00
2018-04-18T00:56:30.990Z,0.00
2018-04-18T00:57:30.983Z,0.00
2018-04-18T00:58:30.979Z,0.00
2018-04-18T00:59:30.975Z,0.00
2018-04-18T01:00:30.972Z,0.00
2018-04-18T01:01:30.969Z,0.00
2018-04-18T01:02:30.964Z,0.00
2018-04-18T01:03:30.961Z,0.00
2018-04-18T01:04:30.958Z,0.00
2018-04-18T01:05:30.953Z,0.00
2018-04-18T01:06:30.948Z,0.00
2018-04-18T01:07:30.949Z,0.00
2018-04-18T01:08:30.947Z,0.00
2018-04-18T01:09:30.937Z,0.00
2018-04-18T01:10:30.933Z,0.00
2018-04-18T01:11:30.933Z,0.00
2018-04-18T01:12:30.926Z,0.00
2018-04-18T01:13:30.921Z,0.00
2018-04-18T01:14:30.918Z,0.00
2018-04-18T01:15:30.917Z,0.00
2018-04-18T01:16:30.914Z,0.00
2018-04-18T01:17:30.906Z,0.00
2018-04-18T01:18:30.901Z,0.00
2018-04-18T01:19:30.902Z,0.00
2018-04-18T01:20:30.897Z,0.00
2018-04-18T01:21:30.889Z,0.00
2018-04-18T01:22:30.890Z,0.00
2018-04-18T01:23:30.881Z,0.00
2018-04-18T01:24:30.879Z,0.00
2018-04-18T01:25:30.876Z,0.00
2018-04-18T01:26:30.870Z,0.00
2018-04-18T01:27:30.865Z,0.00
2018-04-18T01:28:30.863Z,0.00
2018-04-18T01:29:30.861Z,0.00
2018-04-18T01:30:30.857Z,0.00
2018-04-18T01:31:30.850Z,0.00
2018-04-18T01:32:30.845Z,0.00
2018-04-18T01:33:30.844Z,0.00
2018-04-18T01:34:30.840Z,0.00
2018-04-18T01:35:30.832Z,0.00
2018-04-18T01:36:30.833Z,0.00
2018-04-18T01:37:30.824Z,0.00
2018-04-18T01:38:30.821Z,0.00
2018-04-18T01:39:30.816Z,0.00
2018-04-18T01:40:30.812Z,0.00
2018-04-18T01:41:30.807Z,0.00
2018-04-18T01:42:30.804Z,0.00
2018-04-18T01:43:30.801Z,0.00
2018-04-18T01:44:30.797Z,0.00
2018-04-18T01:45:30.791Z,0.00
2018-04-18T01:46:30.787Z,0.00
2018-04-18T01:47:30.787Z,0.00
2018-04-18T01:48:30.783Z,0.00
2018-04-18T01:49:30.775Z,0.00
2018-04-18T01:50:30.772Z,0.00
2018-04-18T01:51:30.776Z,0.00
2018-04-18T01:52:30.767Z,0.00
2018-04-18T01:53:30.759Z,0.00
2018-04-18T01:54:30.755Z,0.00
2018-04-18T01:55:30.753Z,0.00
2018-04-18T01:56:30.749Z,0.00
2018-04-18T01:57:30.744Z,0.00
2018-04-18T01:58:30.740Z,0.00
2018-04-18T01:59:30.738Z,0.00
2018-04-18T02:00:30.731Z,0.00
2018-04-18T02:01:30.731Z,0.00
2018-04-18T02:02:30.732Z,0.00
2018-04-18T02:03:30.725Z,0.00
2018-04-18T02:04:30.716Z,0.00
2018-04-18T02:05:30.714Z,0.00
2018-04-18T02:06:30.714Z,0.00
2018-04-18T02:07:30.709Z,0.00
2018-04-18T02:08:30.698Z,0.00
2018-04-18T02:09:30.696Z,0.00
2018-04-18T02:10:30.691Z,0.00
2018-04-18T02:11:30.688Z,0.00
2018-04-18T02:12:30.684Z,0.00
2018-04-18T02:13:30.677Z,0.00
2018-04-18T02:14:30.672Z,0.00
2018-04-18T02:15:30.668Z,0.00
2018-04-18T02:16:30.666Z,0.00
2018-04-18T02:17:30.659Z,0.00
2018-04-18T02:18:30.655Z,0.00
2018-04-18T02:19:30.654Z,0.00
2018-04-18T02:20:30.651Z,0.00
2018-04-18T02:21:30.644Z,0.00
2018-04-18T02:22:30.637Z,0.00
2018-04-18T02:23:30.639Z,0.00
2018-04-18T02:24:30.634Z,0.00
2018-04-18T02:25:30.625Z,0.00
2018-04-18T02:26:30.620Z,0.00
2018-04-18T02:27:30.618Z,0.00
2018-04-18T02:28:30.612Z,0.00
2018-04-18T02:29:30.607Z,0.00
2018-04-18T02:30:30.606Z,0.00
2018-04-18T02:31:30.600Z,0.00
2018-04-18T02:32:30.596Z,0.00
2018-04-18T02:33:30.594Z,0.00
2018-04-18T02:34:30.590Z,0.00
2018-04-18T02:35:30.581Z,0.00
2018-04-18T02:36:30.577Z,0.00
2018-04-18T02:37:30.576Z,0.00
2018-04-18T02:38:30.572Z,0.00
2018-04-18T02:39:30.564Z,0.00
2018-04-18T02:40:30.559Z,0.00
2018-04-18T02:41:30.556Z,0.00
2018-04-18T02:42:30.551Z,0.00
2018-04-18T02:43:30.546Z,0.00
2018-04-18T02:44:30.542Z,0.00
2018-04-18T02:45:30.536Z,0.00
2018-04-18T02:46:30.542Z,0.00
2018-04-18T02:47:30.529Z,0.00
2018-04-18T02:48:30.523Z,0.00
2018-04-18T02:49:30.518Z,0.00
2018-04-18T02:50:30.515Z,0.00
2018-04-18T02:51:30.514Z,0.00
2018-04-18T02:52:30.511Z,0.00
2018-04-18T02:53:30.508Z,0.00
2018-04-18T02:54:30.495Z,0.00
2018-04-18T02:55:30.495Z,0.00
2018-04-18T02:56:30.492Z,0.00
2018-04-18T02:57:30.482Z,0.00
2018-04-18T02:58:30.477Z,0.00
2018-04-18T02:59:30.474Z,0.00
2018-04-18T03:00:30.470Z,0.00
2018-04-18T03:01:30.465Z,0.00
2018-04-18T03:02:30.460Z,0.00
2018-04-18T03:03:30.456Z,0.00
2018-04-18T03:04:30.452Z,0.00
2018-04-18T03:05:30.449Z,0.00
2018-04-18T03:06:30.445Z,0.00
2018-04-18T03:07:30.438Z,0.00
2018-04-18T03:08:30.432Z,0.00
2018-04-18T03:09:30.430Z,0.00
2018-04-18T03:10:30.425Z,0.00
2018-04-18T03:11:30.417Z,0.00
2018-04-18T03:12:30.413Z,0.00
2018-04-18T03:13:30.408Z,0.00
2018-04-18T03:14:30.403Z,0.00
2018-04-18T03:15:30.399Z,0.00
2018-04-18T03:16:30.394Z,0.00
2018-04-18T03:17:30.433Z,0.00
2018-04-18T03:18:30.388Z,0.00
2018-04-18T03:19:30.382Z,0.00
2018-04-18T03:20:30.375Z,0.00
2018-04-18T03:21:30.369Z,0.00
2018-04-18T03:22:30.366Z,0.00
2018-04-18T03:23:30.360Z,0.00
2018-04-18T03:24:30.356Z,0.00
2018-04-18T03:25:30.351Z,0.00
2018-04-18T03:26:30.392Z,0.00
2018-04-18T03:27:30.342Z,0.00
2018-04-18T03:28:30.338Z,0.00
2018-04-18T03:29:30.336Z,0.00
2018-04-18T03:30:30.331Z,0.00
2018-04-18T03:31:30.323Z,0.00
2018-04-18T03:32:30.318Z,0.00
2018-04-18T03:33:30.313Z,0.00
2018-04-18T03:34:30.311Z,0.00
2018-04-18T03:35:30.311Z,0.00
2018-04-18T03:36:30.304Z,0.00
2018-04-18T03:37:30.293Z,0.00
2018-04-18T03:38:30.290Z,0.00
2018-04-18T03:39:30.290Z,0.00
2018-04-18T03:40:30.279Z,0.00
2018-04-18T03:41:30.273Z,0.00
2018-04-18T03:42:30.269Z,0.00
2018-04-18T03:43:30.266Z,0.00
2018-04-18T03:44:30.261Z,0.00
2018-04-18T03:45:30.253Z,0.00
2018-04-18T03:46:30.249Z,0.00
2018-04-18T03:47:30.257Z,0.00
2018-04-18T03:48:30.244Z,0.00
2018-04-18T03:49:30.239Z,0.00
2018-04-18T03:50:30.233Z,0.00
2018-04-18T03:51:30.225Z,0.00
2018-04-18T03:52:30.219Z,0.00
2018-04-18T03:53:30.213Z,0.00
2018-04-18T03:54:30.208Z,0.00
2018-04-18T03:55:30.205Z,0.00
2018-04-18T03:56:30.199Z,0.00
2018-04-18T03:57:30.193Z,0.00
2018-04-18T03:58:30.192Z,0.00
2018-04-18T03:59:30.184Z,0.00
2018-04-18T04:00:30.179Z,0.00
2018-04-18T04:01:30.178Z,0.00
2018-04-18T04:02:30.248Z,0.00
2018-04-18T04:03:30.164Z,0.00
2018-04-18T04:04:30.159Z,0.00
2018-04-18T04:05:30.153Z,0.00
2018-04-18T04:06:30.150Z,0.00
2018-04-18T04:07:30.149Z,0.00
2018-04-18T04:08:30.144Z,0.00
2018-04-18T04:09:30.135Z,0.00
2018-04-18T04:10:30.143Z,0.00
2018-04-18T04:11:30.125Z,0.00
2018-04-18T04:12:30.119Z,0.00
2018-04-18T04:13:30.113Z,0.00
2018-04-18T04:14:30.109Z,0.00
2018-04-18T04:15:30.105Z,0.00
2018-04-18T04:16:30.101Z,0.00
2018-04-18T04:17:30.094Z,0.00
2018-04-18T04:18:30.092Z,0.00
2018-04-18T04:19:30.088Z,0.00
2018-04-18T04:20:30.086Z,0.00
2018-04-18T04:21:30.080Z,0.00
2018-04-18T04:22:30.071Z,5.63
2018-04-18T04:23:30.064Z,5.63
2018-04-18T04:24:30.060Z,5.63
2018-04-18T04:25:30.055Z,5.63
2018-04-18T04:26:30.049Z,5.63
2018-04-18T04:27:30.048Z,5.63
2018-04-18T04:28:30.043Z,11.25
2018-04-18T04:29:30.034Z,11.25
2018-04-18T04:30:30.029Z,11.25
2018-04-18T04:31:30.063Z,11.25
2018-04-18T04:32:30.023Z,16.88
2018-04-18T04:33:30.013Z,16.88
2018-04-18T04:34:30.016Z,16.88
2018-04-18T04:35:30.003Z,16.88
2018-04-18T04:36:29.999Z,22.50
2018-04-18T04:37:29.993Z,22.50
2018-04-18T04:38:29.993Z,22.50
2018-04-18T04:39:29.986Z,28.13
2018-04-18T04:40:29.979Z,28.13
2018-04-18T04:41:29.983Z,28.13
2018-04-18T04:42:29.976Z,33.75
2018-04-18T04:43:29.964Z,33.75
2018-04-18T04:44:29.960Z,39.38
2018-04-18T04:45:29.957Z,39.38
2018-04-18T04:46:29.952Z,45.00
2018-04-18T04:47:29.944Z,45.00
2018-04-18T04:48:29.938Z,50.63
2018-04-18T04:49:29.932Z,50.63
2018-04-18T04:50:29.927Z,56.25
2018-04-18T04:51:29.924Z,56.25
2018-04-18T04:52:29.920Z,61.88
2018-04-18T04:53:29.912Z,61.88
2018-04-18T04:54:29.908Z,67.50
2018-04-18T04:55:29.904Z,73.13
2018-04-18T04:56:29.951Z,73.13
2018-04-18T04:57:29.893Z,78.75
2018-04-18T04:58:29.887Z,78.75
2018-04-18T04:59:29.888Z,84.38
2018-04-18T05:00:29.883Z,90.00
2018-04-18T05:01:29.874Z,90.00
2018-04-18T05:02:29.917Z,90.00
2018-04-18T05:03:29.867Z,101.25
2018-04-18T05:04:29.863Z,129.38
2018-04-18T05:05:29.855Z,174.38
2018-04-18T05:06:29.849Z,225.00
2018-04-18T05:07:29.844Z,241.88
2018-04-18T05:08:29.839Z,258.75
2018-04-18T05:09:29.834Z,270.00
2018-04-18T05:10:29.829Z,286.88
2018-04-18T05:11:29.825Z,303.75
2018-04-18T05:12:29.822Z,326.25
2018-04-18T05:13:29.820Z,343.13
2018-04-18T05:14:29.822Z,348.75
2018-04-18T05:15:29.809Z,360.00
2018-04-18T05:16:29.804Z,376.88
2018-04-18T05:17:29.804Z,388.13
2018-04-18T05:18:29.801Z,405.00
2018-04-18T05:19:29.795Z,416.25
2018-04-18T05:20:29.790Z,433.13
2018-04-18T05:21:29.784Z,450.00
2018-04-18T05:22:29.783Z,466.88
2018-04-18T05:23:29.778Z,478.13
2018-04-18T05:24:29.785Z,495.00
2018-04-18T05:25:29.776Z,506.25
2018-04-18T05:26:29.774Z,523.13
2018-04-18T05:27:29.768Z,540.00
2018-04-18T05:28:29.765Z,562.50
2018-04-18T05:29:29.765Z,573.75
2018-04-18T05:30:29.763Z,590.63
2018-04-18T05:31:29.760Z,607.50
2018-04-18T05:32:29.758Z,624.38
2018-04-18T05:33:29.756Z,641.25
2018-04-18T05:34:29.755Z,658.13
2018-04-18T05:35:29.753Z,669.38
2018-04-18T05:36:29.753Z,691.88
2018-04-18T05:37:29.755Z,708.75
2018-04-18T05:38:29.755Z,720.00
2018-04-18T05:39:29.750Z,736.88
2018-04-18T05:40:29.751Z,759.38
2018-04-18T05:41:29.749Z,776.25
2018-04-18T05:42:29.748Z,787.50
2018-04-18T05:43:29.752Z,804.38
2018-04-18T05:44:29.752Z,821.25
2018-04-18T05:45:29.748Z,838.13
2018-04-18T05:46:29.749Z,849.38
2018-04-18T05:47:29.751Z,866.25
2018-04-18T05:48:29.751Z,883.13
2018-04-18T05:49:29.753Z,900.00
2018-04-18T05:50:29.752Z,911.25
2018-04-18T05:51:29.755Z,933.75
2018-04-18T05:52:29.757Z,933.75
2018-04-18T05:53:29.756Z,945.00
2018-04-18T05:54:29.758Z,961.88
2018-04-18T05:55:29.765Z,978.75
2018-04-18T05:56:29.767Z,990.00
2018-04-18T05:57:29.768Z,1006.88
2018-04-18T05:58:29.771Z,1018.13
2018-04-18T05:59:29.770Z,1040.63
2018-04-18T06:00:29.773Z,1057.50
2018-04-18T06:01:29.775Z,1063.13
2018-04-18T06:02:29.781Z,1074.38
2018-04-18T06:03:29.783Z,1091.25
2018-04-18T06:04:29.786Z,1102.50
2018-04-18T06:05:29.788Z,1113.75
2018-04-18T06:06:29.791Z,1130.63
2018-04-18T06:07:29.797Z,1141.88
2018-04-18T06:08:29.800Z,1153.13
2018-04-18T06:09:29.807Z,1170.00
2018-04-18T06:10:29.812Z,1192.50
2018-04-18T06:11:29.812Z,1203.75
2018-04-18T06:12:29.816Z,1215.00
2018-04-18T06:13:29.820Z,1226.25
2018-04-18T06:14:29.825Z,1237.50
2018-04-18T06:15:29.835Z,1248.75
2018-04-18T06:16:29.839Z,1265.63
2018-04-18T06:17:29.840Z,1276.88
2018-04-18T06:18:29.846Z,1288.13
2018-04-18T06:19:29.851Z,1299.38
2018-04-18T06:20:29.856Z,1310.63
2018-04-18T06:21:29.861Z,1321.88
2018-04-18T06:22:29.867Z,1338.75
2018-04-18T06:23:29.872Z,1355.63
2018-04-18T06:24:29.880Z,1355.63
2018-04-18T06:25:29.884Z,1372.50
2018-04-18T06:26:29.891Z,1378.13
2018-04-18T06:27:29.900Z,1383.75
2018-04-18T06:28:29.908Z,1395.00
2018-04-18T06:29:29.909Z,1400.63
2018-04-18T06:30:29.915Z,1417.50
2018-04-18T06:31:29.922Z,1434.38
2018-04-18T06:32:29.928Z,1456.88
2018-04-18T06:33:29.940Z,1451.25
2018-04-18T06:34:29.946Z,1479.38
2018-04-18T06:35:29.949Z,1473.75
2018-04-18T06:36:29.957Z,1485.00
2018-04-18T06:37:29.966Z,1496.25
2018-04-18T06:38:29.975Z,1513.13
2018-04-18T06:39:29.982Z,1530.00
2018-04-18T06:40:29.985Z,1535.63
2018-04-18T06:41:29.993Z,1541.25
2018-04-18T06:42:30.002Z,1546.88
2018-04-18T06:43:30.010Z,1558.13
2018-04-18T06:44:30.022Z,1569.38
2018-04-18T06:45:30.026Z,1575.00
2018-04-18T06:46:30.033Z,1586.25
2018-04-18T06:47:30.042Z,1591.88
2018-04-18T06:48:30.050Z,1603.13
2018-04-18T06:49:30.057Z,1614.38
2018-04-18T06:50:30.071Z,1620.00
2018-04-18T06:51:30.080Z,1631.25
2018-04-18T06:52:30.090Z,1648.13
2018-04-18T06:53:30.095Z,1653.75
2018-04-18T06:54:30.104Z,1659.38
2018-04-18T06:55:30.117Z,1681.88
2018-04-18T06:56:30.127Z,1687.50
2018-04-18T06:57:30.132Z,1687.50
2018-04-18T06:58:30.142Z,1698.75
2018-04-18T06:59:30.151Z,1012.50
2018-04-18T07:00:30.163Z,1023.75
2018-04-18T07:01:30.171Z,1029.38
2018-04-18T07:02:30.183Z,1040.63
2018-04-18T07:03:30.193Z,1051.88
2018-04-18T07:04:30.202Z,1051.88
2018-04-18T07:05:30.216Z,1063.13
2018-04-18T07:06:30.232Z,1068.75
2018-04-18T07:07:30.235Z,1074.38
2018-04-18T07:08:30.248Z,1080.00
2018-04-18T07:09:30.259Z,1091.25
2018-04-18T07:10:30.269Z,1102.50
2018-04-18T07:11:30.276Z,1102.50
2018-04-18T07:12:30.288Z,1119.38
2018-04-18T07:13:30.298Z,1141.88
2018-04-18T07:14:30.312Z,1175.63
2018-04-18T07:15:30.320Z,1209.38
2018-04-18T07:16:30.332Z,1220.63
2018-04-18T07:17:30.344Z,1237.50
2018-04-18T07:18:30.354Z,1248.75
2018-04-18T07:19:30.367Z,1276.88
2018-04-18T07:20:30.379Z,1316.25
2018-04-18T07:21:30.388Z,1372.50
2018-04-18T07:22:30.401Z,1366.88
2018-04-18T07:23:30.416Z,1389.38
2018-04-18T07:24:30.430Z,1400.63
2018-04-18T07:25:30.435Z,1417.50
2018-04-18T07:26:30.447Z,1440.00
2018-04-18T07:27:30.464Z,1445.63
2018-04-18T07:28:30.477Z,1462.50
2018-04-18T07:29:30.483Z,1485.00
2018-04-18T07:30:30.500Z,1485.00
2018-04-18T07:31:30.507Z,1485.00
2018-04-18T07:32:30.520Z,1507.50
2018-04-18T07:33:30.532Z,1513.13
2018-04-18T07:34:30.545Z,1501.88
2018-04-18T07:35:30.561Z,1518.75
2018-04-18T07:36:30.575Z,1524.38
2018-04-18T07:37:30.582Z,1541.25
2018-04-18T07:38:30.595Z,1558.13
2018-04-18T07:39:30.609Z,1586.25
2018-04-18T07:40:30.623Z,1597.50
2018-04-18T07:41:30.639Z,1608.75
2018-04-18T07:42:30.652Z,1586.25
2018-04-18T07:43:30.663Z,1625.63
2018-04-18T07:44:30.676Z,1631.25
2018-04-18T07:45:30.689Z,1653.75
2018-04-18T07:46:30.703Z,1670.63
2018-04-18T07:47:30.721Z,1710.00
2018-04-18T07:48:30.736Z,1721.25
2018-04-18T07:49:30.749Z,1715.63
2018-04-18T07:50:30.765Z,1726.88
2018-04-18T07:51:30.774Z,1738.13
2018-04-18T07:52:30.790Z,1766.25
2018-04-18T07:53:30.803Z,1805.63
2018-04-18T07:54:30.818Z,1867.50
2018-04-18T07:55:30.834Z,1929.38
2018-04-18T07:56:30.849Z,1839.38
2018-04-18T07:57:30.863Z,2013.75
2018-04-18T07:58:30.877Z,2098.13
2018-04-18T07:59:30.893Z,2210.63
2018-04-18T08:00:30.909Z,2300.63
2018-04-18T08:01:30.927Z,2508.75
2018-04-18T08:02:30.943Z,2778.75
2018-04-18T08:03:30.956Z,3076.88
2018-04-18T08:04:30.971Z,3352.50
2018-04-18T08:05:30.985Z,3616.88
2018-04-18T08:06:31.001Z,3605.63
2018-04-18T08:07:31.022Z,3470.63
2018-04-18T08:08:31.070Z,3476.25
2018-04-18T08:09:31.050Z,3622.50
2018-04-18T08:10:31.067Z,3712.50
2018-04-18T08:11:31.081Z,3808.13
2018-04-18T08:12:31.099Z,3785.63
2018-04-18T08:13:31.114Z,3909.38
2018-04-18T08:14:31.130Z,4027.50
2018-04-18T08:15:31.203Z,4179.38
2018-04-18T08:16:31.165Z,4258.13
2018-04-18T08:17:31.180Z,4376.25
2018-04-18T08:18:31.197Z,4528.13
2018-04-18T08:19:31.219Z,4685.63
2018-04-18T08:20:31.235Z,4876.88
2018-04-18T08:21:31.252Z,5124.38
2018-04-18T08:22:31.268Z,5017.50
2018-04-18T08:23:31.281Z,4803.75
2018-04-18T08:24:31.298Z,5124.38
2018-04-18T08:25:31.315Z,5197.50
2018-04-18T08:26:31.333Z,4995.00
2018-04-18T08:27:31.350Z,5338.13
2018-04-18T08:28:31.371Z,5720.63
2018-04-18T08:29:31.383Z,5529.38
2018-04-18T08:30:31.400Z,5371.88
2018-04-18T08:31:31.418Z,5270.63
2018-04-18T08:32:31.435Z,5096.25
2018-04-18T08:33:31.456Z,5085.00
2018-04-18T08:34:31.473Z,4719.38
2018-04-18T08:35:31.486Z,4545.00
2018-04-18T08:36:31.504Z,4623.75
2018-04-18T08:37:31.522Z,4466.25
2018-04-18T08:38:31.542Z,4443.75
2018-04-18T08:39:31.556Z,4522.50
2018-04-18T08:40:31.575Z,4635.00
2018-04-18T08:41:31.594Z,4314.38
2018-04-18T08:42:31.612Z,4027.50
2018-04-18T08:43:31.626Z,4123.13
2018-04-18T08:44:31.643Z,4426.88
2018-04-18T08:45:31.665Z,4505.63
2018-04-18T08:46:31.684Z,4213.13
2018-04-18T08:47:31.699Z,4196.25
2018-04-18T08:48:31.716Z,4438.13
2018-04-18T08:49:31.733Z,4556.25
2018-04-18T08:50:31.753Z,4381.88
2018-04-18T08:51:31.772Z,4145.63
2018-04-18T08:52:31.793Z,4173.75
2018-04-18T08:53:31.810Z,4140.00
2018-04-18T08:54:31.827Z,3954.38
2018-04-18T08:55:31.847Z,3909.38
2018-04-18T08:56:31.868Z,3954.38
2018-04-18T08:57:31.884Z,3999.38
2018-04-18T08:58:31.904Z,3943.13
2018-04-18T08:59:31.926Z,3892.50
2018-04-18T09:00:31.944Z,3993.75
2018-04-18T09:01:31.959Z,3926.25
2018-04-18T09:02:31.978Z,3870.00
2018-04-18T09:03:32.003Z,3898.13
2018-04-18T09:04:32.021Z,3971.25
2018-04-18T09:05:32.036Z,3965.63
2018-04-18T09:06:32.055Z,3870.00
2018-04-18T09:07:32.074Z,3808.13
2018-04-18T09:08:32.095Z,3841.88
2018-04-18T09:09:32.114Z,3870.00
2018-04-18T09:10:32.131Z,3926.25
2018-04-18T09:11:32.153Z,3993.75
2018-04-18T09:12:32.171Z,4055.63
2018-04-18T09:13:32.193Z,4038.75
2018-04-18T09:14:32.213Z,3875.63
2018-04-18T09:15:32.228Z,3881.25
2018-04-18T09:16:32.248Z,4021.88
2018-04-18T09:17:32.269Z,4342.50
2018-04-18T09:18:32.290Z,4528.13
2018-04-18T09:19:32.303Z,4404.38
2018-04-18T09:20:32.323Z,4201.88
2018-04-18T09:21:32.341Z,4196.25
2018-04-18T09:22:32.360Z,4516.88
2018-04-18T09:23:32.378Z,4556.25
2018-04-18T09:24:32.398Z,4483.13
2018-04-18T09:25:32.417Z,4758.75
2018-04-18T09:26:32.435Z,5051.25
2018-04-18T09:27:32.455Z,5045.63
2018-04-18T09:28:32.520Z,4837.50
2018-04-18T09:29:32.492Z,4561.88
2018-04-18T09:30:32.512Z,4370.63
2018-04-18T09:31:32.536Z,4128.75
2018-04-18T09:32:32.555Z,4010.63
2018-04-18T09:33:32.570Z,4106.25
2018-04-18T09:34:32.591Z,4111.88
2018-04-18T09:35:32.615Z,4106.25
2018-04-18T09:36:32.634Z,3189.38
2018-04-18T09:37:32.649Z,4016.25
2018-04-18T09:38:32.670Z,4185.00
2018-04-18T09:39:32.692Z,4207.50
2018-04-18T09:40:32.710Z,4246.88
2018-04-18T09:41:32.730Z,4291.88
2018-04-18T09:42:32.751Z,4365.00
2018-04-18T09:43:32.775Z,4432.50
2018-04-18T09:44:32.795Z,4438.13
2018-04-18T09:45:32.815Z,4483.13
2018-04-18T09:46:32.839Z,4511.25
2018-04-18T09:47:32.853Z,4516.88
2018-04-18T09:48:32.873Z,4516.88
2018-04-18T09:49:32.893Z,4471.88
2018-04-18T09:50:32.912Z,4483.13
2018-04-18T09:51:32.939Z,4511.25
2018-04-18T09:52:32.954Z,4471.88
2018-04-18T09:53:32.972Z,4286.25
2018-04-18T09:54:32.996Z,4179.38
2018-04-18T09:55:33.023Z,4128.75
2018-04-18T09:56:33.039Z,4128.75
2018-04-18T09:57:33.058Z,4207.50
2018-04-18T09:58:33.143Z,4128.75
2018-04-18T09:59:33.095Z,4061.25
2018-04-18T10:00:33.116Z,4072.50
2018-04-18T10:01:33.136Z,3971.25
2018-04-18T10:02:33.154Z,3622.50
2018-04-18T10:03:33.211Z,3273.75
2018-04-18T10:04:33.196Z,3200.63
2018-04-18T10:05:33.216Z,3178.13
2018-04-18T10:06:33.237Z,3116.25
2018-04-18T10:07:33.257Z,3054.38
2018-04-18T10:08:33.277Z,3015.00
2018-04-18T10:09:33.301Z,2964.38
2018-04-18T10:10:33.322Z,2941.88
2018-04-18T10:11:33.339Z,2896.88
2018-04-18T10:12:33.360Z,2863.13
2018-04-18T10:13:33.380Z,2835.00
2018-04-18T10:14:33.402Z,2767.50
2018-04-18T10:15:33.466Z,2745.00
2018-04-18T10:16:33.446Z,2722.50
2018-04-18T10:17:33.465Z,2694.38
2018-04-18T10:18:33.483Z,2626.88
2018-04-18T10:19:33.507Z,2610.00
2018-04-18T10:20:33.524Z,2565.00
2018-04-18T10:21:33.545Z,2553.75
2018-04-18T10:22:33.566Z,2514.38
2018-04-18T10:23:33.590Z,2525.63
2018-04-18T10:24:33.606Z,2514.38
2018-04-18T10:25:33.626Z,2508.75
2018-04-18T10:26:33.647Z,2491.88
2018-04-18T10:27:33.671Z,2525.63
2018-04-18T10:28:33.696Z,2615.63
2018-04-18T10:29:33.712Z,3420.00
2018-04-18T10:30:33.732Z,4685.63
2018-04-18T10:31:33.759Z,4786.88
2018-04-18T10:32:33.769Z,4781.25
2018-04-18T10:33:33.790Z,4488.75
2018-04-18T10:34:33.826Z,4674.38
2018-04-18T10:35:33.830Z,4815.00
2018-04-18T10:36:33.852Z,4770.00
2018-04-18T10:37:33.871Z,4910.63
2018-04-18T10:38:33.891Z,4876.88
2018-04-18T10:39:33.913Z,4792.50
2018-04-18T10:40:33.933Z,4612.50
2018-04-18T10:41:33.957Z,4730.63
2018-04-18T10:42:33.976Z,4511.25
2018-04-18T10:43:33.992Z,4230.00
2018-04-18T10:44:34.012Z,4398.75
2018-04-18T10:45:34.031Z,4500.00
2018-04-18T10:46:34.052Z,4387.50
2018-04-18T10:47:34.076Z,4286.25
2018-04-18T10:48:34.097Z,4224.38
2018-04-18T10:49:34.111Z,4196.25
2018-04-18T10:50:34.128Z,4072.50
2018-04-18T10:51:34.148Z,4038.75
2018-04-18T10:52:34.167Z,4235.63
2018-04-18T10:53:34.186Z,4376.25
2018-04-18T10:54:34.203Z,4533.75
2018-04-18T10:55:34.222Z,4342.50
2018-04-18T10:56:34.241Z,4483.13
2018-04-18T10:57:34.259Z,4308.75
2018-04-18T10:58:34.346Z,4488.75
2018-04-18T10:59:34.298Z,4674.38
2018-04-18T11:00:34.316Z,4680.00
2018-04-18T11:01:34.333Z,4460.63
2018-04-18T11:02:34.353Z,4353.75
2018-04-18T11:03:34.367Z,4398.75
2018-04-18T11:04:34.385Z,4320.00
2018-04-18T11:05:34.403Z,4500.00
2018-04-18T11:06:34.421Z,4443.75
2018-04-18T11:07:34.438Z,4359.38
2018-04-18T11:08:34.457Z,4246.88
2018-04-18T11:09:34.476Z,4044.38
2018-04-18T11:10:34.493Z,4066.88
2018-04-18T11:11:34.510Z,3982.50
2018-04-18T11:12:34.529Z,4005.00
2018-04-18T11:13:34.555Z,4483.13
2018-04-18T11:14:34.568Z,4618.13
2018-04-18T11:15:34.582Z,4618.13
2018-04-18T11:16:34.599Z,4466.25
2018-04-18T11:17:34.616Z,4483.13
2018-04-18T11:18:34.634Z,4528.13
2018-04-18T11:19:34.656Z,4612.50
2018-04-18T11:20:34.673Z,4696.88
2018-04-18T11:21:34.685Z,4696.88
2018-04-18T11:22:34.703Z,2598.75
2018-04-18T11:23:34.719Z,984.38
2018-04-18T11:24:34.737Z,826.88
2018-04-18T11:25:34.751Z,793.13
2018-04-18T11:26:34.769Z,765.00
2018-04-18T11:27:34.784Z,742.50
2018-04-18T11:28:34.799Z,725.63
2018-04-18T11:29:34.811Z,714.38
2018-04-18T11:30:34.826Z,703.13
2018-04-18T11:31:34.852Z,697.50
2018-04-18T11:32:34.860Z,691.88
2018-04-18T11:33:34.873Z,686.25
2018-04-18T11:34:34.886Z,686.25
2018-04-18T11:35:34.897Z,680.63
2018-04-18T11:36:34.910Z,675.00
2018-04-18T11:37:34.920Z,669.38
2018-04-18T11:38:34.931Z,652.50
2018-04-18T11:39:34.944Z,652.50
2018-04-18T11:40:34.956Z,641.25
2018-04-18T11:41:34.970Z,635.63
2018-04-18T11:42:34.980Z,624.38
2018-04-18T11:43:34.988Z,613.13
2018-04-18T11:44:35.000Z,607.50
2018-04-18T11:45:35.017Z,601.88
2018-04-18T11:46:35.023Z,596.25
2018-04-18T11:47:35.032Z,590.63
2018-04-18T11:48:35.044Z,585.00
2018-04-18T11:49:35.048Z,579.38
2018-04-18T11:50:35.057Z,573.75
2018-04-18T11:51:35.068Z,568.13
2018-04-18T11:52:35.080Z,568.13
2018-04-18T11:53:35.089Z,551.25
2018-04-18T11:54:35.097Z,545.63
2018-04-18T11:55:35.103Z,540.00
2018-04-18T11:56:35.114Z,534.38
2018-04-18T11:57:35.134Z,534.38
2018-04-18T11:58:35.131Z,528.75
2018-04-18T11:59:35.137Z,540.00
2018-04-18T12:00:35.145Z,528.75
2018-04-18T12:01:35.160Z,528.75
2018-04-18T12:02:35.161Z,523.13
2018-04-18T12:03:35.168Z,523.13
2018-04-18T12:04:35.177Z,528.75
2018-04-18T12:05:35.185Z,523.13
2018-04-18T12:06:35.191Z,523.13
2018-04-18T12:07:35.199Z,523.13
2018-04-18T12:08:35.208Z,523.13
2018-04-18T12:09:35.214Z,523.13
2018-04-18T12:10:35.222Z,528.75
2018-04-18T12:11:35.242Z,523.13
2018-04-18T12:12:35.243Z,523.13
2018-04-18T12:13:35.243Z,523.13
2018-04-18T12:14:35.252Z,517.50
2018-04-18T12:15:35.264Z,523.13
2018-04-18T12:16:35.271Z,517.50
2018-04-18T12:17:35.275Z,517.50
2018-04-18T12:18:35.282Z,506.25
2018-04-18T12:19:35.289Z,500.63
2018-04-18T12:20:35.358Z,500.63
2018-04-18T12:21:35.305Z,495.00
2018-04-18T12:22:35.309Z,495.00
2018-04-18T12:23:35.316Z,489.38
2018-04-18T12:24:35.324Z,489.38
2018-04-18T12:25:35.335Z,483.75
2018-04-18T12:26:35.342Z,478.13
2018-04-18T12:27:35.344Z,489.38
2018-04-18T12:28:35.352Z,489.38
2018-04-18T12:29:35.361Z,489.38
2018-04-18T12:30:35.369Z,483.75
2018-04-18T12:31:35.371Z,478.13
2018-04-18T12:32:35.378Z,472.50
2018-04-18T12:33:35.385Z,461.25
2018-04-18T12:34:35.392Z,461.25
2018-04-18T12:35:35.399Z,455.63
2018-04-18T12:36:35.407Z,444.38